createdAt,value
2017-11-24T00:02:26.135Z,10.43
2017-11-24T00:04:54.468Z,10.13
2017-11-24T00:07:21.926Z,10.87
2017-11-24T00:09:49.487Z,12.33
2017-11-24T00:12:16.945Z,10.63
2017-11-24T00:14:44.474Z,15.10
2017-11-24T00:17:11.954Z,19.80
2017-11-24T00:19:40.261Z,12.70
2017-11-24T00:22:07.829Z,8.40
2017-11-24T00:24:35.307Z,20.27
2017-11-24T00:27:02.876Z,12.97
2017-11-24T00:29:30.534Z,15.70
2017-11-24T00:31:58.261Z,14.53
2017-11-24T00:34:26.526Z,11.07
2017-11-24T00:36:54.161Z,12.97
2017-11-24T00:39:21.698Z,10.17
2017-11-24T00:41:49.290Z,10.63
2017-11-24T00:44:16.766Z,10.03
2017-11-24T00:46:44.500Z,8.93
2017-11-24T00:49:11.967Z,13.03
2017-11-24T00:51:39.467Z,12.43
2017-11-24T00:56:41.707Z,11.00
2017-11-24T00:59:09.194Z,13.63
2017-11-24T01:01:38.230Z,11.30
2017-11-24T01:04:05.708Z,12.07
2017-11-24T01:06:33.174Z,11.37
2017-11-24T01:09:00.703Z,10.27
2017-11-24T01:11:28.179Z,7.67
2017-11-24T01:13:55.657Z,8.23
2017-11-24T01:16:24.766Z,9.83
2017-11-24T01:18:52.252Z,5.97
2017-11-24T01:21:19.705Z,10.33
2017-11-24T01:23:47.269Z,10.33
2017-11-24T01:26:14.746Z,8.93
2017-11-24T01:28:42.427Z,12.03
2017-11-24T01:31:09.981Z,9.47
2017-11-24T01:33:37.465Z,9.30
2017-11-24T01:36:05.187Z,11.13
2017-11-24T01:38:32.647Z,13.67
2017-11-24T01:41:00.132Z,14.70
2017-11-24T01:43:28.457Z,8.10
2017-11-24T01:45:55.948Z,7.30
2017-11-24T01:48:23.497Z,6.07
2017-11-24T01:50:50.979Z,13.63
2017-11-24T01:53:18.461Z,10.07
2017-11-24T01:55:46.710Z,15.00
2017-11-24T01:58:14.236Z,13.43
2017-11-24T02:00:41.717Z,7.93
2017-11-24T02:03:09.746Z,19.23
2017-11-24T02:05:37.971Z,13.60
2017-11-24T02:08:05.459Z,4.50
2017-11-24T02:10:33.699Z,11.33
2017-11-24T02:13:01.179Z,8.20
2017-11-24T02:15:28.748Z,11.90
2017-11-24T02:17:57.003Z,10.70
2017-11-24T02:20:24.466Z,13.73
2017-11-24T02:22:51.941Z,7.73
2017-11-24T02:25:20.284Z,12.90
2017-11-24T02:27:47.766Z,15.40
2017-11-24T02:30:15.243Z,16.10
2017-11-24T02:32:43.493Z,12.03
2017-11-24T02:35:10.960Z,12.70
2017-11-24T02:37:39.281Z,8.70
2017-11-24T02:40:06.759Z,7.40
2017-11-24T02:42:34.217Z,11.20
2017-11-24T02:45:01.789Z,10.87
2017-11-24T02:47:30.776Z,11.17
2017-11-24T02:49:58.228Z,9.83
2017-11-24T02:52:25.818Z,9.60
2017-11-24T02:54:53.294Z,6.47
2017-11-24T02:57:21.519Z,9.13
2017-11-24T02:59:48.998Z,14.03
2017-11-24T03:02:16.473Z,12.27
2017-11-24T03:04:44.730Z,13.57
2017-11-24T03:07:12.310Z,14.63
2017-11-24T03:09:41.194Z,6.33
2017-11-24T03:12:09.560Z,11.83
2017-11-24T03:14:37.215Z,11.40
2017-11-24T03:17:04.725Z,5.63
2017-11-24T03:19:32.194Z,10.17
2017-11-24T03:21:59.702Z,14.53
2017-11-24T03:24:27.974Z,5.90
2017-11-24T03:26:55.522Z,6.10
2017-11-24T03:29:23.192Z,13.97
2017-11-24T03:31:51.485Z,9.20
2017-11-24T03:34:19.793Z,5.73
2017-11-24T03:36:47.314Z,7.37
2017-11-24T03:39:15.571Z,6.13
2017-11-24T03:41:43.101Z,15.50
2017-11-24T03:44:10.587Z,13.97
2017-11-24T03:46:38.920Z,8.47
2017-11-24T03:49:06.377Z,10.47
2017-11-24T03:51:33.854Z,7.50
2017-11-24T03:54:01.349Z,11.67
2017-11-24T03:56:29.597Z,8.80
2017-11-24T03:58:57.186Z,8.60
2017-11-24T04:01:25.574Z,7.40
2017-11-24T04:03:53.818Z,5.80
2017-11-24T04:06:21.293Z,5.53
2017-11-24T04:08:49.548Z,8.77
2017-11-24T04:11:17.058Z,7.80
2017-11-24T04:13:44.533Z,6.43
2017-11-24T04:16:12.014Z,7.73
2017-11-24T04:18:39.486Z,3.33
2017-11-24T04:21:06.984Z,6.03
2017-11-24T04:23:34.457Z,8.23
2017-11-24T04:26:02.037Z,7.63
2017-11-24T04:28:29.507Z,6.10
2017-11-24T04:30:57.061Z,7.13
2017-11-24T04:33:24.539Z,8.43
2017-11-24T04:35:52.767Z,10.00
2017-11-24T04:38:20.289Z,12.40
2017-11-24T04:40:48.566Z,11.30
2017-11-24T04:43:16.798Z,9.40
2017-11-24T04:45:44.276Z,9.50
2017-11-24T04:48:11.750Z,6.47
2017-11-24T04:50:40.013Z,6.63
2017-11-24T04:53:08.238Z,9.73
2017-11-24T04:55:35.738Z,10.80
2017-11-24T04:58:03.277Z,8.40
2017-11-24T05:00:30.756Z,10.73
2017-11-24T05:02:58.225Z,7.10
2017-11-24T05:05:26.462Z,8.03
2017-11-24T05:07:53.979Z,9.37
2017-11-24T05:10:21.694Z,10.93
2017-11-24T05:12:49.403Z,9.33
2017-11-24T05:15:16.858Z,6.17
2017-11-24T05:17:44.338Z,11.80
2017-11-24T05:20:11.804Z,7.07
2017-11-24T05:22:39.285Z,11.67
2017-11-24T05:25:06.757Z,3.73
2017-11-24T05:27:34.336Z,4.87
2017-11-24T05:30:02.554Z,7.53
2017-11-24T05:32:30.042Z,4.27
2017-11-24T05:34:57.515Z,10.50
2017-11-24T05:37:25.765Z,9.10
2017-11-24T05:39:53.225Z,9.40
2017-11-24T05:42:20.750Z,7.30
2017-11-24T05:44:48.324Z,5.93
2017-11-24T05:47:15.794Z,3.80
2017-11-24T05:49:43.256Z,6.13
2017-11-24T05:52:10.742Z,5.23
2017-11-24T05:54:38.971Z,6.13
2017-11-24T05:57:06.443Z,7.80
2017-11-24T05:59:33.939Z,4.63
2017-11-24T06:02:01.398Z,6.07
2017-11-24T06:04:28.911Z,14.33
2017-11-24T06:06:56.380Z,5.57
2017-11-24T06:09:23.865Z,2.60
2017-11-24T06:11:52.089Z,4.33
2017-11-24T06:14:19.568Z,9.10
2017-11-24T06:16:47.027Z,7.70
2017-11-24T06:19:14.573Z,8.00
2017-11-24T06:21:42.030Z,8.17
2017-11-24T06:24:09.661Z,10.23
2017-11-24T06:26:37.129Z,7.87
2017-11-24T06:29:04.584Z,5.43
2017-11-24T06:31:32.094Z,6.73
2017-11-24T06:34:00.333Z,13.90
2017-11-24T06:36:27.823Z,11.07
2017-11-24T06:38:56.062Z,16.83
2017-11-24T06:41:23.575Z,8.40
2017-11-24T06:43:51.078Z,10.03
2017-11-24T06:46:18.757Z,7.30
2017-11-24T06:48:46.209Z,9.07
2017-11-24T06:51:13.676Z,6.23
2017-11-24T06:53:41.188Z,10.93
2017-11-24T06:56:08.633Z,8.53
2017-11-24T06:58:36.202Z,6.77
2017-11-24T07:01:03.669Z,13.20
2017-11-24T07:03:31.271Z,8.80
2017-11-24T07:05:59.490Z,7.73
2017-11-24T07:08:27.067Z,11.63
2017-11-24T07:10:55.034Z,8.43
2017-11-24T07:13:22.504Z,15.10
2017-11-24T07:15:49.985Z,14.20
2017-11-24T07:18:17.491Z,7.53
2017-11-24T07:20:44.958Z,7.83
2017-11-24T07:23:12.430Z,11.30
2017-11-24T07:25:40.328Z,5.97
2017-11-24T07:28:07.780Z,6.30
2017-11-24T07:30:35.409Z,9.70
2017-11-24T07:33:02.867Z,8.87
2017-11-24T07:35:30.324Z,10.03
2017-11-24T07:37:57.804Z,9.80
2017-11-24T07:40:26.053Z,13.30
2017-11-24T07:42:53.527Z,8.17
2017-11-24T07:45:21.038Z,10.40
2017-11-24T07:47:48.524Z,13.17
2017-11-24T07:50:16.119Z,15.17
2017-11-24T07:52:44.365Z,20.20
2017-11-24T07:55:11.876Z,20.53
2017-11-24T07:57:40.103Z,20.77
2017-11-24T08:00:07.583Z,22.10
2017-11-24T08:02:36.103Z,15.73
2017-11-24T08:05:03.570Z,12.70
2017-11-24T08:07:31.051Z,14.27
2017-11-24T08:09:58.633Z,12.17
2017-11-24T08:12:26.932Z,16.33
2017-11-24T08:14:54.412Z,15.23
2017-11-24T08:17:22.063Z,23.00
2017-11-24T08:19:49.533Z,16.67
2017-11-24T08:22:17.008Z,16.13
2017-11-24T08:24:44.501Z,18.93
2017-11-24T08:27:11.958Z,13.30
2017-11-24T08:29:39.466Z,14.10
2017-11-24T08:32:07.126Z,8.67
2017-11-24T08:34:34.688Z,12.17
2017-11-24T08:37:02.158Z,9.77
2017-11-24T08:39:29.625Z,11.97
2017-11-24T08:41:57.224Z,9.17
2017-11-24T08:44:25.601Z,11.87
2017-11-24T08:46:59.491Z,8.30
2017-11-24T08:49:32.598Z,9.10
2017-11-24T08:52:00.855Z,7.90
2017-11-24T08:54:29.262Z,8.77
2017-11-24T08:56:56.728Z,6.20
2017-11-24T08:59:24.248Z,10.20
2017-11-24T09:01:51.725Z,5.90
2017-11-24T09:04:20.086Z,5.30
2017-11-24T09:06:47.563Z,6.63
2017-11-24T09:09:15.063Z,5.20
2017-11-24T09:11:42.931Z,7.80
2017-11-24T09:14:10.444Z,5.27
2017-11-24T09:16:38.726Z,6.20
2017-11-24T09:19:06.209Z,12.10
2017-11-24T09:21:33.702Z,14.10
2017-11-24T09:24:01.230Z,12.43
2017-11-24T09:26:29.090Z,11.60
2017-11-24T09:28:57.599Z,11.73
2017-11-24T09:31:25.130Z,11.40
2017-11-24T09:33:52.662Z,11.17
2017-11-24T09:36:20.248Z,19.67
2017-11-24T09:38:47.719Z,13.47
2017-11-24T09:41:15.223Z,9.90
2017-11-24T09:43:43.614Z,11.50
2017-11-24T09:46:11.854Z,15.17
2017-11-24T09:48:39.331Z,13.40
2017-11-24T09:51:07.596Z,13.23
2017-11-24T09:53:35.858Z,12.83
2017-11-24T09:56:03.338Z,11.73
2017-11-24T09:58:36.746Z,10.00
2017-11-24T10:01:05.071Z,12.10
2017-11-24T10:03:32.558Z,15.90
2017-11-24T10:06:00.140Z,11.53
2017-11-24T10:08:28.616Z,13.33
2017-11-24T10:10:56.251Z,13.73
2017-11-24T10:13:23.772Z,16.77
2017-11-24T10:15:51.394Z,14.53
2017-11-24T10:18:19.664Z,12.13
2017-11-24T10:20:53.415Z,5.13
2017-11-24T10:23:20.940Z,7.53
2017-11-24T10:25:49.188Z,7.43
2017-11-24T10:28:16.707Z,7.37
2017-11-24T10:30:44.201Z,7.80
2017-11-24T10:33:11.661Z,12.00
2017-11-24T10:35:39.172Z,12.80
2017-11-24T10:38:06.725Z,8.97
2017-11-24T10:40:34.195Z,9.47
2017-11-24T10:43:02.011Z,9.60
2017-11-24T10:45:29.527Z,7.10
2017-11-24T10:47:56.993Z,8.00
2017-11-24T10:50:24.550Z,7.53
2017-11-24T10:52:52.023Z,7.70
2017-11-24T10:55:19.493Z,6.97
2017-11-24T10:57:47.787Z,7.37
2017-11-24T11:00:16.035Z,4.80
2017-11-24T11:02:43.538Z,7.20
2017-11-24T11:05:11.001Z,5.53
2017-11-24T11:07:38.492Z,10.00
2017-11-24T11:10:06.074Z,8.93
2017-11-24T11:12:33.543Z,5.67
2017-11-24T11:15:03.441Z,7.10
2017-11-24T11:17:32.306Z,7.97
2017-11-24T11:20:00.041Z,7.20
2017-11-24T11:22:28.387Z,6.17
2017-11-24T11:24:56.619Z,4.53
2017-11-24T11:27:24.161Z,9.10
2017-11-24T11:29:51.645Z,16.70
2017-11-24T11:32:19.752Z,18.30
2017-11-24T11:34:48.065Z,15.33
2017-11-24T11:37:18.451Z,16.33
2017-11-24T11:39:49.011Z,8.50
2017-11-24T11:42:16.473Z,8.10
2017-11-24T11:44:44.184Z,7.90
2017-11-24T11:47:11.664Z,10.70
2017-11-24T11:49:39.906Z,14.60
2017-11-24T11:52:07.387Z,15.20
2017-11-24T11:54:35.639Z,16.07
2017-11-24T11:57:03.363Z,21.10
2017-11-24T11:59:30.837Z,15.77
2017-11-24T12:01:58.325Z,13.10
2017-11-24T12:04:25.834Z,13.53
2017-11-24T12:06:53.294Z,9.53
2017-11-24T12:09:20.760Z,9.47
2017-11-24T12:11:48.462Z,9.47
2017-11-24T12:14:15.973Z,13.53
2017-11-24T12:16:43.452Z,13.00
2017-11-24T12:19:10.938Z,12.10
2017-11-24T12:21:38.417Z,13.43
2017-11-24T12:24:05.972Z,9.20
2017-11-24T12:26:33.443Z,16.70
2017-11-24T12:29:00.982Z,17.43
2017-11-24T12:31:29.218Z,20.93
2017-11-24T12:33:56.766Z,23.10
2017-11-24T12:36:24.336Z,20.83
2017-11-24T12:38:51.817Z,27.10
2017-11-24T12:41:19.412Z,18.47
2017-11-24T12:43:46.930Z,23.27
2017-11-24T12:46:15.321Z,19.13
2017-11-24T12:48:43.579Z,24.17
2017-11-24T12:51:11.249Z,28.60
2017-11-24T12:53:38.738Z,28.60
2017-11-24T12:56:06.224Z,24.87
2017-11-24T12:58:33.744Z,29.00
2017-11-24T13:01:01.981Z,25.97
2017-11-24T13:03:29.609Z,23.93
2017-11-24T13:05:57.130Z,24.23
2017-11-24T13:08:25.510Z,19.37
2017-11-24T13:10:53.886Z,18.80
2017-11-24T13:13:22.104Z,13.33
2017-11-24T13:15:49.586Z,13.37
2017-11-24T13:18:17.109Z,16.60
2017-11-24T13:20:44.587Z,14.70
2017-11-24T13:23:12.667Z,19.73
2017-11-24T13:25:40.142Z,11.33
2017-11-24T13:28:07.816Z,16.20
2017-11-24T13:30:36.086Z,23.27
2017-11-24T13:33:03.554Z,16.43
2017-11-24T13:35:31.995Z,15.73
2017-11-24T13:37:59.657Z,21.93
2017-11-24T13:40:28.062Z,21.23
2017-11-24T13:42:55.525Z,13.43
2017-11-24T13:45:23.759Z,16.80
2017-11-24T13:47:51.313Z,14.30
2017-11-24T13:50:18.787Z,15.00
2017-11-24T13:52:46.263Z,12.23
2017-11-24T13:55:13.757Z,11.47
2017-11-24T13:57:41.826Z,13.23
2017-11-24T14:00:09.298Z,11.40
2017-11-24T14:02:36.934Z,12.63
2017-11-24T14:05:04.442Z,11.70
2017-11-24T14:07:31.929Z,13.97
2017-11-24T14:09:59.479Z,12.03
2017-11-24T14:12:26.947Z,11.20
2017-11-24T14:14:55.369Z,14.70
2017-11-24T14:17:23.069Z,13.57
2017-11-24T14:19:50.627Z,17.90
2017-11-24T14:22:18.971Z,14.20
2017-11-24T14:24:46.455Z,15.80
2017-11-24T14:27:14.105Z,13.30
2017-11-24T14:29:41.799Z,13.33
2017-11-24T14:32:10.058Z,12.40
2017-11-24T14:34:37.752Z,14.20
2017-11-24T14:37:06.003Z,13.40
2017-11-24T14:39:33.755Z,14.57
2017-11-24T14:42:01.253Z,14.40
2017-11-24T14:44:29.718Z,16.27
2017-11-24T14:46:58.096Z,17.17
2017-11-24T14:49:25.628Z,18.97
2017-11-24T14:51:53.138Z,15.93
2017-11-24T14:54:20.672Z,14.87
2017-11-24T14:56:48.923Z,13.77
2017-11-24T14:59:16.423Z,13.47
2017-11-24T15:01:43.899Z,14.87
2017-11-24T15:04:11.422Z,20.63
2017-11-24T15:06:39.717Z,19.37
2017-11-24T15:09:07.957Z,15.20
2017-11-24T15:11:35.431Z,15.20
2017-11-24T15:14:03.667Z,21.77
2017-11-24T15:16:31.137Z,14.00
2017-11-24T15:18:58.636Z,12.87
2017-11-24T15:21:26.886Z,15.23
2017-11-24T15:23:55.137Z,18.20
2017-11-24T15:26:22.671Z,13.80
2017-11-24T15:28:50.161Z,13.63
2017-11-24T15:31:17.625Z,19.50
2017-11-24T15:33:45.090Z,20.83
2017-11-24T15:36:12.585Z,19.17
2017-11-24T15:38:40.083Z,16.97
2017-11-24T15:41:07.715Z,15.40
2017-11-24T15:43:35.330Z,19.90
2017-11-24T15:46:03.565Z,17.17
2017-11-24T15:48:31.088Z,14.63
2017-11-24T15:50:58.683Z,17.60
2017-11-24T15:53:26.235Z,15.80
2017-11-24T15:55:53.763Z,23.10
2017-11-24T15:58:21.506Z,21.63
2017-11-24T16:00:49.881Z,16.70
2017-11-24T16:03:18.933Z,23.40
2017-11-24T16:05:46.419Z,24.27
2017-11-24T16:08:13.931Z,17.67
2017-11-24T16:10:42.152Z,17.43
2017-11-24T16:13:09.646Z,24.70
2017-11-24T16:15:37.906Z,27.37
2017-11-24T16:18:06.368Z,17.60
2017-11-24T16:20:33.923Z,24.47
2017-11-24T16:23:01.719Z,21.80
2017-11-24T16:25:29.967Z,24.57
2017-11-24T16:27:57.483Z,23.77
2017-11-24T16:30:24.957Z,20.57
2017-11-24T16:32:53.180Z,24.33
2017-11-24T16:35:21.453Z,21.73
2017-11-24T16:37:49.766Z,20.50
2017-11-24T16:40:18.220Z,23.23
2017-11-24T16:42:46.467Z,24.40
2017-11-24T16:45:14.714Z,24.40
2017-11-24T16:47:42.326Z,24.27
2017-11-24T16:50:10.589Z,22.00
2017-11-24T16:52:38.848Z,17.93
2017-11-24T16:55:07.110Z,20.60
2017-11-24T16:57:34.774Z,22.13
2017-11-24T17:00:02.280Z,25.53
2017-11-24T17:02:30.688Z,26.53
2017-11-24T17:04:58.400Z,27.33
2017-11-24T17:07:26.694Z,25.90
2017-11-24T17:09:54.375Z,24.50
2017-11-24T17:12:22.001Z,26.40
2017-11-24T17:14:50.266Z,22.07
2017-11-24T17:17:17.798Z,21.07
2017-11-24T17:19:45.289Z,28.90
2017-11-24T17:22:13.577Z,27.33
2017-11-24T17:24:41.844Z,26.10
2017-11-24T17:27:10.142Z,19.83
2017-11-24T17:29:37.637Z,25.83
2017-11-24T17:32:05.115Z,24.13
2017-11-24T17:34:32.599Z,17.60
2017-11-24T17:37:00.902Z,35.93
2017-11-24T17:39:28.431Z,19.10
2017-11-24T17:41:56.671Z,19.50
2017-11-24T17:44:24.261Z,22.47
2017-11-24T17:46:52.629Z,20.67
2017-11-24T17:49:20.126Z,26.27
2017-11-24T17:51:47.616Z,23.50
2017-11-24T17:54:15.076Z,23.37
2017-11-24T17:56:42.576Z,23.70
2017-11-24T17:59:10.126Z,25.20
2017-11-24T18:01:38.015Z,25.00
2017-11-24T18:04:06.933Z,23.30
2017-11-24T18:06:34.406Z,27.30
2017-11-24T18:09:01.938Z,23.17
2017-11-24T18:11:29.538Z,24.03
2017-11-24T18:13:57.081Z,20.93
2017-11-24T18:16:24.930Z,28.40
2017-11-24T18:18:52.563Z,22.13
2017-11-24T18:21:20.642Z,22.60
2017-11-24T18:23:48.192Z,22.30
2017-11-24T18:26:15.675Z,22.33
2017-11-24T18:28:43.435Z,22.90
2017-11-24T18:31:10.973Z,24.57
2017-11-24T18:33:39.134Z,25.90
2017-11-24T18:36:08.260Z,21.73
2017-11-24T18:38:35.869Z,23.80
2017-11-24T18:41:03.397Z,27.67
2017-11-24T18:43:30.925Z,25.87
2017-11-24T18:45:58.442Z,24.20
2017-11-24T18:48:26.398Z,26.17
2017-11-24T18:50:54.963Z,24.73
2017-11-24T18:53:22.486Z,20.63
2017-11-24T18:55:50.067Z,25.53
2017-11-24T18:58:17.761Z,28.50
2017-11-24T19:00:45.258Z,26.47
2017-11-24T19:03:12.928Z,23.00
2017-11-24T19:05:40.436Z,24.30
2017-11-24T19:08:07.925Z,32.60
2017-11-24T19:10:35.493Z,26.67
2017-11-24T19:13:03.060Z,28.13
2017-11-24T19:15:30.690Z,30.17
2017-11-24T19:17:58.174Z,26.57
2017-11-24T19:20:25.858Z,24.67
2017-11-24T19:22:53.404Z,23.77
2017-11-24T19:25:20.893Z,25.03
2017-11-24T19:27:48.512Z,22.37
2017-11-24T19:30:16.009Z,22.77
2017-11-24T19:32:43.611Z,24.10
2017-11-24T19:35:11.887Z,23.23
2017-11-24T19:37:40.194Z,31.00
2017-11-24T19:40:07.710Z,26.20
2017-11-24T19:42:35.249Z,30.33
2017-11-24T19:45:02.885Z,27.60
2017-11-24T19:47:30.429Z,26.87
2017-11-24T19:49:57.921Z,26.60
2017-11-24T19:52:25.528Z,27.50
2017-11-24T19:54:53.120Z,26.30
2017-11-24T19:57:20.650Z,24.30
2017-11-24T19:59:49.009Z,24.07
2017-11-24T20:02:17.391Z,21.30
2017-11-24T20:04:45.780Z,30.47
2017-11-24T20:07:19.220Z,31.83
2017-11-24T20:09:46.892Z,27.87
2017-11-24T20:12:14.383Z,31.00
2017-11-24T20:14:41.898Z,25.40
2017-11-24T20:17:09.662Z,26.67
2017-11-24T20:19:37.180Z,25.10
2017-11-24T20:22:05.438Z,21.80
2017-11-24T20:24:33.827Z,24.10
2017-11-24T20:27:02.093Z,30.07
2017-11-24T20:29:30.474Z,25.80
2017-11-24T20:31:58.740Z,28.43
2017-11-24T20:34:26.203Z,24.03
2017-11-24T20:36:54.471Z,26.93
2017-11-24T20:39:22.924Z,23.93
2017-11-24T20:41:50.415Z,23.03
2017-11-24T20:44:17.874Z,27.40
2017-11-24T20:46:46.225Z,23.33
2017-11-24T20:49:13.729Z,24.17
2017-11-24T20:51:41.988Z,25.20
2017-11-24T20:54:10.222Z,26.93
2017-11-24T20:56:37.716Z,29.83
2017-11-24T20:59:05.972Z,28.27
2017-11-24T21:01:33.455Z,24.27
2017-11-24T21:04:01.818Z,28.97
2017-11-24T21:06:29.279Z,27.43
2017-11-24T21:08:57.552Z,25.77
2017-11-24T21:11:25.012Z,27.57
2017-11-24T21:13:53.282Z,27.33
2017-11-24T21:16:20.758Z,23.90
2017-11-24T21:18:49.012Z,23.60
2017-11-24T21:21:16.514Z,26.13
2017-11-24T21:23:44.133Z,25.03
2017-11-24T21:26:11.627Z,24.90
2017-11-24T21:28:39.115Z,25.70
2017-11-24T21:31:06.617Z,21.07
2017-11-24T21:33:34.855Z,25.30
2017-11-24T21:36:02.337Z,21.80
2017-11-24T21:38:29.802Z,24.57
2017-11-24T21:40:58.129Z,26.43
2017-11-24T21:43:25.743Z,30.57
2017-11-24T21:45:53.301Z,24.43
2017-11-24T21:48:20.851Z,21.67
2017-11-24T21:50:50.864Z,26.50
2017-11-24T21:53:19.191Z,28.87
2017-11-24T21:55:46.755Z,26.00
2017-11-24T21:58:14.235Z,27.53
2017-11-24T22:00:41.720Z,24.90
2017-11-24T22:03:09.202Z,28.03
2017-11-24T22:05:36.860Z,21.40
2017-11-24T22:08:05.120Z,27.87
2017-11-24T22:10:33.860Z,27.57
2017-11-24T22:13:01.352Z,20.13
2017-11-24T22:15:29.662Z,27.10
2017-11-24T22:17:57.152Z,24.80
2017-11-24T22:20:24.661Z,22.87
2017-11-24T22:22:52.921Z,23.80
2017-11-24T22:25:21.196Z,38.53
2017-11-24T22:27:48.660Z,21.10
2017-11-24T22:30:19.267Z,23.30
2017-11-24T22:32:46.834Z,26.63
2017-11-24T22:35:14.371Z,20.83
2017-11-24T22:37:41.847Z,23.60
2017-11-24T22:40:09.352Z,23.07
2017-11-24T22:42:36.832Z,23.83
2017-11-24T22:45:05.282Z,26.17
2017-11-24T22:47:32.772Z,25.60
2017-11-24T22:50:00.275Z,25.73
2017-11-24T22:52:27.732Z,26.60
2017-11-24T22:54:56.001Z,26.20
2017-11-24T22:57:23.466Z,25.50
2017-11-24T22:59:51.722Z,25.43
2017-11-24T23:02:19.342Z,28.70
2017-11-24T23:04:46.867Z,27.67
2017-11-24T23:07:15.126Z,28.03
2017-11-24T23:09:42.845Z,23.90
2017-11-24T23:12:10.306Z,29.30
2017-11-24T23:14:37.809Z,27.67
2017-11-24T23:17:05.283Z,27.10
2017-11-24T23:19:33.509Z,32.90
2017-11-24T23:22:01.051Z,29.67
2017-11-24T23:24:28.525Z,27.63
2017-11-24T23:26:56.013Z,30.37
2017-11-24T23:29:24.290Z,26.40
2017-11-24T23:31:52.515Z,30.07
2017-11-24T23:34:20.738Z,29.37
2017-11-24T23:36:48.982Z,28.83
2017-11-24T23:39:16.454Z,32.73
2017-11-24T23:41:43.976Z,30.27
2017-11-24T23:44:11.451Z,24.30
2017-11-24T23:46:38.908Z,23.33
2017-11-24T23:49:06.404Z,28.40
2017-11-24T23:51:33.949Z,32.10
2017-11-24T23:54:01.433Z,26.27
2017-11-24T23:56:29.648Z,26.03
2017-11-24T23:58:57.833Z,28.30
